createdAt,value
2022-12-25T00:00:26.802Z,1.17
2022-12-25T00:05:50.090Z,1.25
2022-12-25T00:11:01.390Z,1.34
2022-12-25T00:16:15.572Z,1.47
2022-12-25T00:21:21.508Z,1.53
2022-12-25T00:26:27.096Z,1.47
2022-12-25T00:31:30.250Z,1.40
2022-12-25T00:36:39.541Z,1.34
2022-12-25T00:42:03.852Z,1.33
2022-12-25T00:47:07.237Z,1.33
2022-12-25T00:52:11.029Z,1.43
2022-12-25T00:57:14.397Z,1.48
2022-12-25T01:02:23.719Z,1.51
2022-12-25T01:07:28.036Z,1.45
2022-12-25T01:12:34.329Z,1.48
2022-12-25T01:17:37.468Z,1.51
2022-12-25T01:22:41.203Z,1.38
2022-12-25T01:27:44.346Z,1.35
2022-12-25T01:32:47.623Z,1.33
2022-12-25T01:37:52.350Z,1.31
2022-12-25T01:42:55.558Z,1.34
2022-12-25T01:48:00.749Z,1.46
2022-12-25T01:53:05.055Z,1.63
2022-12-25T01:58:08.574Z,1.73
2022-12-25T02:03:12.091Z,1.79
2022-12-25T02:08:18.728Z,1.68
2022-12-25T02:13:22.695Z,1.63
2022-12-25T02:18:41.373Z,1.61
2022-12-25T02:24:15.206Z,1.54
2022-12-25T02:29:52.707Z,1.47
2022-12-25T02:35:25.743Z,1.41
2022-12-25T02:40:45.227Z,1.48
2022-12-25T02:46:25.395Z,1.60
2022-12-25T02:51:55.008Z,1.76
2022-12-25T02:57:20.654Z,1.81
2022-12-25T03:02:43.444Z,1.84
2022-12-25T03:07:47.753Z,1.82
2022-12-25T03:13:01.751Z,1.81
2022-12-25T03:18:12.289Z,1.74
2022-12-25T03:23:41.709Z,1.71
2022-12-25T03:28:44.919Z,1.71
2022-12-25T03:34:32.680Z,1.76
2022-12-25T03:40:40.296Z,1.85
2022-12-25T03:46:11.096Z,1.97
2022-12-25T03:51:38.217Z,2.03
2022-12-25T03:57:02.992Z,1.99
2022-12-25T04:02:24.941Z,1.88
2022-12-25T04:20:31.349Z,1.87
2022-12-25T04:26:12.955Z,1.95
2022-12-25T04:31:34.930Z,2.08
2022-12-25T04:36:38.121Z,2.18
2022-12-25T04:41:41.323Z,2.22
2022-12-25T04:46:44.607Z,2.23
2022-12-25T04:51:47.871Z,2.16
2022-12-25T04:56:51.075Z,2.06
2022-12-25T05:01:54.237Z,1.93
2022-12-25T05:06:57.507Z,1.78
2022-12-25T05:12:00.572Z,1.72
2022-12-25T05:17:03.902Z,1.73
2022-12-25T05:22:07.000Z,1.77
2022-12-25T05:27:10.113Z,1.84
2022-12-25T05:32:13.281Z,1.82
2022-12-25T05:37:16.314Z,1.73
2022-12-25T05:42:19.425Z,1.73
2022-12-25T05:47:22.624Z,1.69
2022-12-25T05:52:25.672Z,1.63
2022-12-25T05:57:30.316Z,1.63
2022-12-25T06:02:36.507Z,1.63
2022-12-25T06:07:39.762Z,1.75
2022-12-25T06:12:43.073Z,1.88
2022-12-25T06:17:46.195Z,1.90
2022-12-25T06:22:49.335Z,1.90
2022-12-25T06:27:52.600Z,1.84
2022-12-25T06:32:55.811Z,1.81
2022-12-25T06:37:58.841Z,1.75
2022-12-25T06:43:02.020Z,1.71
2022-12-25T06:48:05.945Z,1.70
2022-12-25T06:53:11.571Z,1.80
2022-12-25T06:58:14.607Z,1.86
2022-12-25T07:03:21.604Z,1.99
2022-12-25T07:08:24.710Z,2.10
2022-12-25T07:13:27.716Z,2.08
2022-12-25T07:18:32.312Z,2.06
2022-12-25T07:23:36.168Z,1.97
2022-12-25T07:28:39.843Z,1.97
2022-12-25T07:33:43.624Z,1.96
2022-12-25T07:38:51.048Z,1.99
2022-12-25T07:43:55.063Z,2.02
2022-12-25T07:48:58.940Z,2.13
2022-12-25T07:54:05.293Z,2.33
2022-12-25T07:59:08.601Z,2.41
2022-12-25T08:04:14.318Z,2.45
2022-12-25T08:09:17.553Z,2.44
2022-12-25T08:14:20.765Z,2.40
2022-12-25T08:19:24.086Z,2.38
2022-12-25T08:24:27.999Z,2.36
2022-12-25T08:29:31.323Z,2.35
2022-12-25T08:34:34.546Z,2.50
2022-12-25T08:39:37.645Z,2.70
2022-12-25T08:44:40.842Z,2.92
2022-12-25T08:49:44.049Z,3.08
2022-12-25T08:54:47.874Z,3.08
2022-12-25T08:59:50.974Z,3.08
2022-12-25T09:04:54.183Z,3.14
2022-12-25T09:09:57.600Z,3.17
2022-12-25T09:15:00.711Z,3.17
2022-12-25T09:20:06.027Z,3.26
2022-12-25T09:25:09.940Z,3.41
2022-12-25T09:30:13.397Z,3.57
2022-12-25T09:35:18.647Z,3.75
2022-12-25T09:40:31.243Z,3.83
2022-12-25T09:45:38.859Z,3.88
2022-12-25T09:50:54.417Z,3.89
2022-12-25T09:56:17.424Z,3.83
2022-12-25T10:01:32.491Z,3.73
2022-12-25T10:06:59.826Z,3.54
2022-12-25T10:12:32.432Z,3.45
2022-12-25T10:17:51.027Z,3.58
2022-12-25T10:22:58.708Z,3.72
2022-12-25T10:28:11.234Z,3.70
2022-12-25T10:33:17.283Z,3.65
2022-12-25T10:38:21.244Z,3.75
2022-12-25T10:43:37.311Z,3.68
2022-12-25T10:48:57.712Z,3.68
2022-12-25T10:54:30.304Z,3.72
2022-12-25T10:59:56.305Z,3.74
2022-12-25T11:05:21.232Z,3.84
2022-12-25T11:10:44.586Z,3.89
2022-12-25T11:15:50.387Z,3.99
2022-12-25T11:21:17.140Z,3.98
2022-12-25T11:26:20.767Z,3.92
2022-12-25T11:31:40.803Z,3.81
2022-12-25T11:36:49.399Z,3.73
2022-12-25T11:42:11.641Z,3.75
2022-12-25T11:47:28.883Z,3.77
2022-12-25T11:52:38.850Z,3.81
2022-12-25T11:57:47.556Z,3.88
2022-12-25T12:03:06.902Z,3.87
2022-12-25T12:08:11.697Z,3.92
2022-12-25T12:13:28.508Z,3.90
2022-12-25T12:18:34.617Z,3.77
2022-12-25T12:24:07.029Z,3.82
2022-12-25T12:29:31.014Z,3.87
2022-12-25T12:34:51.387Z,3.90
2022-12-25T12:39:57.350Z,3.90
2022-12-25T12:45:38.585Z,3.87
2022-12-25T12:50:45.564Z,3.81
2022-12-25T12:55:52.091Z,3.79
2022-12-25T13:01:17.778Z,3.80
2022-12-25T13:06:42.425Z,3.87
2022-12-25T13:11:49.086Z,4.01
2022-12-25T13:16:56.076Z,4.14
2022-12-25T13:22:08.296Z,4.19
2022-12-25T13:27:29.090Z,4.22
2022-12-25T13:32:36.497Z,4.23
2022-12-25T13:37:43.092Z,4.11
2022-12-25T13:42:50.749Z,3.94
2022-12-25T13:47:58.542Z,3.78
2022-12-25T13:53:18.839Z,3.73
2022-12-25T13:58:36.216Z,3.77
2022-12-25T14:03:45.457Z,3.84
2022-12-25T14:08:57.776Z,3.91
2022-12-25T14:14:31.902Z,3.90
2022-12-25T14:19:38.656Z,3.86
2022-12-25T14:24:45.449Z,3.79
2022-12-25T14:29:56.805Z,3.74
2022-12-25T14:35:04.964Z,3.70
2022-12-25T14:40:23.106Z,3.72
2022-12-25T14:45:32.704Z,3.74
2022-12-25T14:50:46.024Z,3.79
2022-12-25T14:55:54.690Z,3.81
2022-12-25T15:01:07.209Z,3.88
2022-12-25T15:06:25.041Z,3.86
2022-12-25T15:11:29.820Z,3.76
2022-12-25T15:16:42.794Z,3.65
2022-12-25T15:21:46.315Z,3.59
2022-12-25T15:26:49.730Z,3.61
2022-12-25T15:31:53.032Z,3.61
2022-12-25T15:36:56.856Z,3.63
2022-12-25T15:42:12.785Z,3.58
2022-12-25T15:47:20.295Z,3.51
2022-12-25T15:52:23.509Z,3.44
2022-12-25T15:57:27.002Z,3.47
2022-12-25T16:02:30.378Z,3.48
2022-12-25T16:07:33.938Z,3.45
2022-12-25T16:12:39.214Z,3.41
2022-12-25T16:17:43.028Z,3.37
2022-12-25T16:22:46.215Z,3.35
2022-12-25T16:27:49.438Z,3.35
2022-12-25T16:32:52.753Z,3.36
2022-12-25T16:37:55.846Z,3.41
2022-12-25T16:42:59.209Z,3.47
2022-12-25T16:48:02.359Z,3.52
2022-12-25T16:53:05.903Z,3.54
2022-12-25T16:58:09.083Z,3.52
2022-12-25T17:03:12.503Z,3.49
2022-12-25T17:08:16.223Z,3.39
2022-12-25T17:13:19.633Z,3.37
2022-12-25T17:18:22.977Z,3.37
2022-12-25T17:23:26.045Z,3.37
2022-12-25T17:28:29.386Z,3.38
2022-12-25T17:33:36.270Z,3.35
2022-12-25T17:38:40.278Z,3.35
2022-12-25T17:43:45.944Z,3.30
2022-12-25T17:48:50.518Z,3.29
2022-12-25T17:53:58.378Z,3.36
2022-12-25T17:59:06.886Z,3.38
2022-12-25T18:04:10.611Z,3.40
2022-12-25T18:09:14.380Z,3.40
2022-12-25T18:14:18.719Z,3.37
2022-12-25T18:19:21.890Z,3.34
2022-12-25T18:24:25.153Z,3.36
2022-12-25T18:29:28.351Z,3.37
2022-12-25T18:34:32.650Z,3.37
2022-12-25T18:39:36.681Z,3.37
2022-12-25T18:44:40.736Z,3.34
2022-12-25T18:49:43.955Z,3.36
2022-12-25T18:54:47.633Z,3.41
2022-12-25T18:59:50.887Z,3.48
2022-12-25T19:04:56.206Z,3.52
2022-12-25T19:09:59.363Z,3.49
2022-12-25T19:15:03.385Z,3.46
2022-12-25T19:20:07.727Z,3.46
2022-12-25T19:25:11.004Z,3.46
2022-12-25T19:30:14.438Z,3.49
2022-12-25T19:35:18.102Z,3.55
2022-12-25T19:40:22.794Z,3.54
2022-12-25T19:45:25.961Z,3.50
2022-12-25T19:50:32.693Z,3.49
2022-12-25T19:55:35.931Z,3.53
2022-12-25T20:00:40.558Z,3.57
2022-12-25T20:05:51.168Z,3.57
2022-12-25T20:10:54.344Z,3.53
2022-12-25T20:16:01.962Z,3.55
2022-12-25T20:21:11.022Z,3.59
2022-12-25T20:26:17.471Z,3.59
2022-12-25T20:31:29.797Z,3.58
2022-12-25T20:36:37.273Z,3.58
2022-12-25T20:41:41.533Z,3.62
2022-12-25T20:46:44.737Z,3.68
2022-12-25T20:51:47.959Z,3.73
2022-12-25T20:56:51.266Z,3.70
2022-12-25T21:01:55.901Z,3.69
2022-12-25T21:07:00.557Z,3.74
2022-12-25T21:12:04.058Z,3.74
2022-12-25T21:17:07.431Z,3.68
2022-12-25T21:22:10.680Z,3.64
2022-12-25T21:27:13.815Z,3.68
2022-12-25T21:32:35.631Z,3.75
2022-12-25T21:37:38.951Z,3.85
2022-12-25T21:42:42.156Z,3.85
2022-12-25T21:47:59.841Z,3.79
2022-12-25T21:53:06.848Z,3.77
2022-12-25T21:58:10.015Z,3.82
2022-12-25T22:03:13.266Z,3.86
2022-12-25T22:08:16.520Z,3.89
2022-12-25T22:13:38.540Z,3.87
2022-12-25T22:19:00.686Z,3.86
2022-12-25T22:24:07.421Z,3.90
2022-12-25T22:29:10.651Z,3.93
2022-12-25T22:34:16.581Z,3.93
2022-12-25T22:39:19.672Z,3.92
2022-12-25T22:44:25.358Z,3.89
2022-12-25T22:49:28.482Z,3.85
2022-12-25T22:54:32.316Z,3.86
2022-12-25T22:59:35.418Z,3.88
2022-12-25T23:04:38.723Z,3.85
2022-12-25T23:09:43.631Z,3.90
2022-12-25T23:14:47.192Z,3.97
2022-12-25T23:20:09.138Z,3.99
2022-12-25T23:25:35.071Z,3.99
2022-12-25T23:30:38.328Z,4.04
2022-12-25T23:35:41.612Z,4.03
2022-12-25T23:40:44.726Z,4.01
2022-12-25T23:45:48.022Z,4.03
2022-12-25T23:50:51.328Z,4.06
2022-12-25T23:55:55.960Z,4.07
